Athlos — 9HA2125 — position and weather

sailwx.info

Track history (hours):
 
Tides and Currents Weather Stations Pressure Air Temp Water Temp Dewpoint Dewpoint Depression Visibility Wind Speed Wind Dir Waves Ship Positions

Athlos

Last reported at 2018-Jul-21 22:49 UTC. Time now 2018-Jul-23 00:21 UTC.
Position N 37°37' E 024°00'.

Length 109 m; draft 5.2 m.

Type: Ship (hazmat cat C). MMSI: 248011000.

Date/timePositionNaut miles runAvg speedWind from/ knotsBaromVisibWave heightAir tempDewpointWater temp
2018-Jul-21 22:49N 37°37' E 024°00'412.9
2018-Jul-21 22:30N 37°37' E 023°55'713.4
2018-Jul-21 22:00N 37°39' E 023°47'612.1
2018-Jul-21 21:30N 37°42' E 023°41'612.9
2018-Jul-21 21:00N 37°48' E 023°37'612.8
2018-Jul-21 20:30N 37°50' E 023°29'612.8
2018-Jul-21 20:00N 37°51' E 023°21'612.9
2018-Jul-21 19:30N 37°52' E 023°13'613.0
2018-Jul-21 19:00N 37°53' E 023°05'4 8.6
2018-Jul-21 18:30N 37°55' E 023°00'2 3.8
2018-Jul-21 18:00N 37°57' E 022°58'2 4.7
2018-Jul-21 17:30N 37°58' E 022°56'611.4
2018-Jul-21 17:00N 38°01' E 022°50'713.0
2018-Jul-21 16:30N 38°05' E 022°43'613.1
2018-Jul-21 16:00N 38°09' E 022°36'  
2018-Jul-17 19:02N 37°00' E 023°27'011.9
2018-Jul-17 18:59N 37°01' E 023°27'612.0
2018-Jul-17 18:28N 37°07' E 023°30'611.9
2018-Jul-17 18:00N 37°12' E 023°32'612.1
2018-Jul-17 17:30N 37°17' E 023°35'611.8
2018-Jul-17 17:00N 37°23' E 023°38'611.1
2018-Jul-17 16:30N 37°28' E 023°39'611.2
2018-Jul-17 16:00N 37°34' E 023°40'611.3
2018-Jul-17 15:30N 37°39' E 023°41'611.3
2018-Jul-17 15:00N 37°45' E 023°39'611.4
2018-Jul-17 14:30N 37°50' E 023°37'611.4
2018-Jul-17 14:00N 37°56' E 023°36'4 7.6
2018-Jul-17 13:30N 37°58' E 023°33'3 6.7
2018-Jul-17 13:00N 38°01' E 023°31'1 2.0
2018-Jul-17 12:30N 38°02' E 023°31'0 0.0
2018-Jul-17 12:00N 38°02' E 023°31'0 0.0
2018-Jul-17 11:30N 38°02' E 023°31'0 0.0
2018-Jul-17 11:00N 38°02' E 023°31'0 0.0
2018-Jul-17 10:30N 38°02' E 023°31'0 0.0
2018-Jul-17 10:00N 38°02' E 023°31'0 0.0
2018-Jul-17 09:30N 38°02' E 023°31'0 0.0
2018-Jul-17 09:00N 38°02' E 023°31'0 0.0
2018-Jul-17 08:30N 38°02' E 023°31'0 0.0
2018-Jul-17 08:00N 38°02' E 023°31'0 0.0
2018-Jul-17 07:30N 38°02' E 023°31'0 0.0
2018-Jul-17 07:00N 38°02' E 023°31'0 0.0
2018-Jul-17 06:30N 38°02' E 023°31'0 0.0
2018-Jul-17 06:00N 38°02' E 023°31'0 0.0
2018-Jul-17 05:30N 38°02' E 023°31'0 0.0
2018-Jul-17 04:58N 38°02' E 023°31'0 0.0
2018-Jul-17 04:28N 38°02' E 023°31'0 0.0
2018-Jul-17 03:58N 38°02' E 023°31'0 0.0
2018-Jul-17 03:28N 38°02' E 023°31'0 0.0
2018-Jul-17 02:58N 38°02' E 023°31'0 0.0
2018-Jul-17 02:28N 38°02' E 023°31'0 0.0
2018-Jul-17 01:58N 38°02' E 023°31'0 0.0
2018-Jul-17 01:28N 38°02' E 023°31'0 0.0
2018-Jul-17 00:58N 38°02' E 023°31'0 0.0
2018-Jul-17 00:28N 38°02' E 023°31'0 0.0
2018-Jul-16 23:28N 38°02' E 023°31'0 0.0
2018-Jul-16 22:58N 38°02' E 023°31'0 0.0
2018-Jul-16 22:28N 38°02' E 023°31'0 0.5
2018-Jul-16 22:00N 38°02' E 023°30'1 2.5
2018-Jul-16 21:30N 38°01' E 023°32'0 0.1
2018-Jul-16 20:58N 38°01' E 023°32'0 0.0
2018-Jul-16 20:28N 38°01' E 023°32'0 0.0
2018-Jul-16 19:58N 38°01' E 023°32'0 0.1
2018-Jul-16 19:28N 38°02' E 023°32'0 0.0
2018-Jul-16 18:58N 38°02' E 023°32'0 0.0
2018-Jul-16 18:28N 38°02' E 023°32'0 0.0
2018-Jul-16 17:58N 38°02' E 023°32'0 0.1
2018-Jul-16 17:28N 38°02' E 023°32'0 0.0
2018-Jul-16 16:58N 38°02' E 023°32'0 0.0
2018-Jul-16 16:28N 38°02' E 023°32'0 0.0
2018-Jul-16 15:58N 38°02' E 023°32'0 0.0
2018-Jul-16 15:28N 38°02' E 023°32'0 0.0
2018-Jul-16 14:58N 38°02' E 023°32'0 0.0
2018-Jul-16 14:28N 38°02' E 023°32'0 0.0
2018-Jul-16 13:58N 38°02' E 023°32'0 0.0
2018-Jul-16 13:28N 38°02' E 023°32'0 0.0
2018-Jul-16 12:58N 38°02' E 023°32'0 0.0
2018-Jul-16 12:28N 38°02' E 023°32'0 0.1
2018-Jul-16 11:55N 38°02' E 023°32'0 0.0
2018-Jul-16 11:19N 38°02' E 023°32'0 0.0
2018-Jul-16 10:58N 38°02' E 023°32'0 0.0
2018-Jul-16 10:28N 38°02' E 023°32'0 0.0
2018-Jul-16 09:58N 38°02' E 023°32'0 0.0
2018-Jul-16 09:28N 38°02' E 023°32'0 0.0
2018-Jul-16 09:00N 38°02' E 023°32'0 0.1
2018-Jul-16 08:30N 38°02' E 023°32'2 4.3
2018-Jul-16 08:00N 38°01' E 023°35'1 1.7
2018-Jul-16 07:28N 38°02' E 023°36'0 0.0
2018-Jul-16 06:58N 38°02' E 023°36'0 0.0
2018-Jul-16 06:28N 38°02' E 023°36'0 0.0
2018-Jul-16 05:58N 38°02' E 023°36'0 0.0
2018-Jul-16 05:28N 38°02' E 023°36'0 0.0
2018-Jul-16 04:58N 38°02' E 023°36'0 0.0
2018-Jul-16 04:28N 38°02' E 023°36'0 0.0
2018-Jul-16 03:58N 38°02' E 023°36'0 0.0
2018-Jul-16 03:28N 38°02' E 023°36'0 0.0
2018-Jul-16 02:58N 38°02' E 023°36'0 0.0
2018-Jul-16 02:28N 38°02' E 023°36'0 0.0
2018-Jul-16 01:58N 38°02' E 023°36'0 0.0
2018-Jul-16 01:28N 38°02' E 023°36'0 0.0
2018-Jul-16 00:58N 38°02' E 023°36'0 0.0
2018-Jul-16 00:28N 38°02' E 023°36'0 0.0
2018-Jul-15 23:58N 38°02' E 023°36'0 0.0
2018-Jul-15 23:28N 38°02' E 023°36'0 0.0
2018-Jul-15 22:55N 38°02' E 023°36'0 0.0
2018-Jul-15 22:28N 38°02' E 023°36'0 0.0
2018-Jul-15 21:58N 38°02' E 023°36'0 0.0
2018-Jul-15 21:28N 38°02' E 023°36'0 0.0
2018-Jul-15 20:58N 38°02' E 023°36'0 0.0
2018-Jul-15 20:28N 38°02' E 023°36'0 0.0
2018-Jul-15 19:58N 38°02' E 023°36'0 0.0
2018-Jul-15 19:28N 38°02' E 023°36'0 0.0
2018-Jul-15 18:58N 38°02' E 023°36'0 0.0
2018-Jul-15 18:28N 38°02' E 023°36'0 0.0
2018-Jul-15 17:58N 38°02' E 023°36'0 0.0
2018-Jul-15 17:28N 38°02' E 023°36'0 0.0
2018-Jul-15 16:58N 38°02' E 023°36'0 0.0
2018-Jul-15 16:28N 38°02' E 023°36'0 0.0
2018-Jul-15 15:58N 38°02' E 023°36'0 0.0
2018-Jul-15 15:28N 38°02' E 023°36'0 0.0
2018-Jul-15 14:58N 38°02' E 023°36'0 0.0
2018-Jul-15 14:25N 38°02' E 023°36'0 0.0
2018-Jul-15 13:58N 38°02' E 023°36'0 0.0
2018-Jul-15 13:28N 38°02' E 023°36'0 0.0
2018-Jul-15 12:58N 38°02' E 023°36'0 0.0
2018-Jul-15 12:28N 38°02' E 023°36'0 0.0
2018-Jul-15 11:58N 38°02' E 023°36'0 0.0
2018-Jul-15 11:28N 38°02' E 023°36'0 0.0
2018-Jul-15 10:58N 38°02' E 023°36'0 0.0
2018-Jul-15 10:28N 38°02' E 023°36'0 0.0
2018-Jul-15 09:58N 38°02' E 023°36'0 0.0
2018-Jul-15 09:28N 38°02' E 023°36'0 0.0
2018-Jul-15 08:58N 38°02' E 023°36'0 0.0
2018-Jul-15 08:28N 38°02' E 023°36'0 0.0
2018-Jul-15 07:58N 38°02' E 023°36'0 0.0
2018-Jul-15 07:30N 38°02' E 023°36'2 3.4
2018-Jul-15 07:00N 38°01' E 023°34'1 1.8
2018-Jul-15 06:29N 38°01' E 023°32'0 0.0
2018-Jul-15 05:59N 38°01' E 023°32'0 0.0
2018-Jul-15 05:29N 38°01' E 023°32'0 0.0
2018-Jul-15 04:59N 38°01' E 023°32'0 0.0
2018-Jul-15 04:29N 38°01' E 023°32'0 0.0
2018-Jul-15 03:58N 38°01' E 023°32'0 0.0
2018-Jul-15 03:28N 38°01' E 023°32'0 0.0
2018-Jul-15 02:59N 38°01' E 023°33'0 0.0
2018-Jul-15 02:29N 38°01' E 023°32'0 0.0
2018-Jul-15 01:59N 38°01' E 023°32'0 0.0
2018-Jul-15 01:28N 38°01' E 023°32'0 0.0
2018-Jul-15 00:58N 38°01' E 023°32'0 0.0
2018-Jul-15 00:29N 38°01' E 023°32'0 0.0
2018-Jul-14 23:59N 38°01' E 023°32'0 0.0
2018-Jul-14 23:29N 38°01' E 023°32'0 0.0
2018-Jul-14 22:59N 38°01' E 023°32'0 0.0
2018-Jul-14 22:28N 38°01' E 023°32'0 0.0
2018-Jul-14 21:59N 38°01' E 023°32'0 0.0
2018-Jul-14 21:29N 38°01' E 023°32'0 0.0
2018-Jul-14 20:59N 38°01' E 023°32'0 0.0
2018-Jul-14 20:28N 38°01' E 023°32'0 0.0
2018-Jul-14 19:58N 38°01' E 023°32'0 0.0
2018-Jul-14 19:29N 38°01' E 023°32'0 0.0
2018-Jul-14 18:58N 38°01' E 023°32'0 0.0
2018-Jul-14 18:29N 38°01' E 023°32'0 0.0
2018-Jul-14 17:58N 38°01' E 023°32'0 0.0
2018-Jul-14 17:29N 38°01' E 023°32'0 0.0
2018-Jul-14 16:59N 38°01' E 023°32'0 0.0
2018-Jul-14 16:29N 38°01' E 023°32'0 0.0
2018-Jul-14 15:55N 38°01' E 023°32'0 0.0
2018-Jul-14 15:29N 38°01' E 023°32'0 0.0
2018-Jul-14 14:58N 38°01' E 023°32'0 0.0
2018-Jul-14 14:29N 38°01' E 023°32'0 0.0
2018-Jul-14 13:29N 38°01' E 023°32'0 0.0
2018-Jul-14 12:58N 38°01' E 023°32'0 0.1
2018-Jul-14 12:29N 38°01' E 023°32'2 3.3
2018-Jul-14 12:00N 37°60' E 023°33'4 8.3
2018-Jul-14 11:30N 37°56' E 023°35'2 4.2
2018-Jul-14 11:00N 37°54' E 023°36'1 2.7
2018-Jul-14 10:30N 37°53' E 023°37'612.3
2018-Jul-14 10:00N 37°47' E 023°41'613.0
2018-Jul-14 09:30N 37°42' E 023°45'612.7
2018-Jul-14 09:00N 37°37' E 023°50'812.6
2018-Jul-14 08:20N 37°31' E 023°58'  
Track history (hours):
 
Tides and Currents Weather Stations Pressure Air Temp Water Temp Dewpoint Dewpoint Depression Visibility Wind Speed Wind Dir Waves Ship Positions

Athlos

Last reported at 2018-Jul-21 22:49 UTC. Time now 2018-Jul-23 00:21 UTC.
Position N 37°37' E 024°00'.

Length 109 m; draft 5.2 m.

Type: Ship (hazmat cat C). MMSI: 248011000.

Date/timePositionNaut miles runAvg speedWind from/ knotsBaromVisibWave heightAir tempDewpointWater temp
2018-Jul-21 22:49N 37°37' E 024°00'412.9
2018-Jul-21 22:30N 37°37' E 023°55'713.4
2018-Jul-21 22:00N 37°39' E 023°47'612.1
2018-Jul-21 21:30N 37°42' E 023°41'612.9
2018-Jul-21 21:00N 37°48' E 023°37'612.8
2018-Jul-21 20:30N 37°50' E 023°29'612.8
2018-Jul-21 20:00N 37°51' E 023°21'612.9
2018-Jul-21 19:30N 37°52' E 023°13'613.0
2018-Jul-21 19:00N 37°53' E 023°05'4 8.6
2018-Jul-21 18:30N 37°55' E 023°00'2 3.8
2018-Jul-21 18:00N 37°57' E 022°58'2 4.7
2018-Jul-21 17:30N 37°58' E 022°56'611.4
2018-Jul-21 17:00N 38°01' E 022°50'713.0
2018-Jul-21 16:30N 38°05' E 022°43'613.1
2018-Jul-21 16:00N 38°09' E 022°36'  
2018-Jul-17 19:02N 37°00' E 023°27'011.9
2018-Jul-17 18:59N 37°01' E 023°27'612.0
2018-Jul-17 18:28N 37°07' E 023°30'611.9
2018-Jul-17 18:00N 37°12' E 023°32'612.1
2018-Jul-17 17:30N 37°17' E 023°35'611.8
2018-Jul-17 17:00N 37°23' E 023°38'611.1
2018-Jul-17 16:30N 37°28' E 023°39'611.2
2018-Jul-17 16:00N 37°34' E 023°40'611.3
2018-Jul-17 15:30N 37°39' E 023°41'611.3
2018-Jul-17 15:00N 37°45' E 023°39'611.4
2018-Jul-17 14:30N 37°50' E 023°37'611.4
2018-Jul-17 14:00N 37°56' E 023°36'4 7.6
2018-Jul-17 13:30N 37°58' E 023°33'3 6.7
2018-Jul-17 13:00N 38°01' E 023°31'1 2.0
2018-Jul-17 12:30N 38°02' E 023°31'0 0.0
2018-Jul-17 12:00N 38°02' E 023°31'0 0.0
2018-Jul-17 11:30N 38°02' E 023°31'0 0.0
2018-Jul-17 11:00N 38°02' E 023°31'0 0.0
2018-Jul-17 10:30N 38°02' E 023°31'0 0.0
2018-Jul-17 10:00N 38°02' E 023°31'0 0.0
2018-Jul-17 09:30N 38°02' E 023°31'0 0.0
2018-Jul-17 09:00N 38°02' E 023°31'0 0.0
2018-Jul-17 08:30N 38°02' E 023°31'0 0.0
2018-Jul-17 08:00N 38°02' E 023°31'0 0.0
2018-Jul-17 07:30N 38°02' E 023°31'0 0.0
2018-Jul-17 07:00N 38°02' E 023°31'0 0.0
2018-Jul-17 06:30N 38°02' E 023°31'0 0.0
2018-Jul-17 06:00N 38°02' E 023°31'0 0.0
2018-Jul-17 05:30N 38°02' E 023°31'0 0.0
2018-Jul-17 04:58N 38°02' E 023°31'0 0.0
2018-Jul-17 04:28N 38°02' E 023°31'0 0.0
2018-Jul-17 03:58N 38°02' E 023°31'0 0.0
2018-Jul-17 03:28N 38°02' E 023°31'0 0.0
2018-Jul-17 02:58N 38°02' E 023°31'0 0.0
2018-Jul-17 02:28N 38°02' E 023°31'0 0.0
2018-Jul-17 01:58N 38°02' E 023°31'0 0.0
2018-Jul-17 01:28N 38°02' E 023°31'0 0.0
2018-Jul-17 00:58N 38°02' E 023°31'0 0.0
2018-Jul-17 00:28N 38°02' E 023°31'0 0.0
2018-Jul-16 23:28N 38°02' E 023°31'0 0.0
2018-Jul-16 22:58N 38°02' E 023°31'0 0.0
2018-Jul-16 22:28N 38°02' E 023°31'0 0.5
2018-Jul-16 22:00N 38°02' E 023°30'1 2.5
2018-Jul-16 21:30N 38°01' E 023°32'0 0.1
2018-Jul-16 20:58N 38°01' E 023°32'0 0.0
2018-Jul-16 20:28N 38°01' E 023°32'0 0.0
2018-Jul-16 19:58N 38°01' E 023°32'0 0.1
2018-Jul-16 19:28N 38°02' E 023°32'0 0.0
2018-Jul-16 18:58N 38°02' E 023°32'0 0.0
2018-Jul-16 18:28N 38°02' E 023°32'0 0.0
2018-Jul-16 17:58N 38°02' E 023°32'0 0.1
2018-Jul-16 17:28N 38°02' E 023°32'0 0.0
2018-Jul-16 16:58N 38°02' E 023°32'0 0.0
2018-Jul-16 16:28N 38°02' E 023°32'0 0.0
2018-Jul-16 15:58N 38°02' E 023°32'0 0.0
2018-Jul-16 15:28N 38°02' E 023°32'0 0.0
2018-Jul-16 14:58N 38°02' E 023°32'0 0.0
2018-Jul-16 14:28N 38°02' E 023°32'0 0.0
2018-Jul-16 13:58N 38°02' E 023°32'0 0.0
2018-Jul-16 13:28N 38°02' E 023°32'0 0.0
2018-Jul-16 12:58N 38°02' E 023°32'0 0.0
2018-Jul-16 12:28N 38°02' E 023°32'0 0.1
2018-Jul-16 11:55N 38°02' E 023°32'0 0.0
2018-Jul-16 11:19N 38°02' E 023°32'0 0.0
2018-Jul-16 10:58N 38°02' E 023°32'0 0.0
2018-Jul-16 10:28N 38°02' E 023°32'0 0.0
2018-Jul-16 09:58N 38°02' E 023°32'0 0.0
2018-Jul-16 09:28N 38°02' E 023°32'0 0.0
2018-Jul-16 09:00N 38°02' E 023°32'0 0.1
2018-Jul-16 08:30N 38°02' E 023°32'2 4.3
2018-Jul-16 08:00N 38°01' E 023°35'1 1.7
2018-Jul-16 07:28N 38°02' E 023°36'0 0.0
2018-Jul-16 06:58N 38°02' E 023°36'0 0.0
2018-Jul-16 06:28N 38°02' E 023°36'0 0.0
2018-Jul-16 05:58N 38°02' E 023°36'0 0.0
2018-Jul-16 05:28N 38°02' E 023°36'0 0.0
2018-Jul-16 04:58N 38°02' E 023°36'0 0.0
2018-Jul-16 04:28N 38°02' E 023°36'0 0.0
2018-Jul-16 03:58N 38°02' E 023°36'0 0.0
2018-Jul-16 03:28N 38°02' E 023°36'0 0.0
2018-Jul-16 02:58N 38°02' E 023°36'0 0.0
2018-Jul-16 02:28N 38°02' E 023°36'0 0.0
2018-Jul-16 01:58N 38°02' E 023°36'0 0.0
2018-Jul-16 01:28N 38°02' E 023°36'0 0.0
2018-Jul-16 00:58N 38°02' E 023°36'0 0.0
2018-Jul-16 00:28N 38°02' E 023°36'0 0.0
2018-Jul-15 23:58N 38°02' E 023°36'0 0.0
2018-Jul-15 23:28N 38°02' E 023°36'0 0.0
2018-Jul-15 22:55N 38°02' E 023°36'0 0.0
2018-Jul-15 22:28N 38°02' E 023°36'0 0.0
2018-Jul-15 21:58N 38°02' E 023°36'0 0.0
2018-Jul-15 21:28N 38°02' E 023°36'0 0.0
2018-Jul-15 20:58N 38°02' E 023°36'0 0.0
2018-Jul-15 20:28N 38°02' E 023°36'0 0.0
2018-Jul-15 19:58N 38°02' E 023°36'0 0.0
2018-Jul-15 19:28N 38°02' E 023°36'0 0.0
2018-Jul-15 18:58N 38°02' E 023°36'0 0.0
2018-Jul-15 18:28N 38°02' E 023°36'0 0.0
2018-Jul-15 17:58N 38°02' E 023°36'0 0.0
2018-Jul-15 17:28N 38°02' E 023°36'0 0.0
2018-Jul-15 16:58N 38°02' E 023°36'0 0.0
2018-Jul-15 16:28N 38°02' E 023°36'0 0.0
2018-Jul-15 15:58N 38°02' E 023°36'0 0.0
2018-Jul-15 15:28N 38°02' E 023°36'0 0.0
2018-Jul-15 14:58N 38°02' E 023°36'0 0.0
2018-Jul-15 14:25N 38°02' E 023°36'0 0.0
2018-Jul-15 13:58N 38°02' E 023°36'0 0.0
2018-Jul-15 13:28N 38°02' E 023°36'0 0.0
2018-Jul-15 12:58N 38°02' E 023°36'0 0.0
2018-Jul-15 12:28N 38°02' E 023°36'0 0.0
2018-Jul-15 11:58N 38°02' E 023°36'0 0.0
2018-Jul-15 11:28N 38°02' E 023°36'0 0.0
2018-Jul-15 10:58N 38°02' E 023°36'0 0.0
2018-Jul-15 10:28N 38°02' E 023°36'0 0.0
2018-Jul-15 09:58N 38°02' E 023°36'0 0.0
2018-Jul-15 09:28N 38°02' E 023°36'0 0.0
2018-Jul-15 08:58N 38°02' E 023°36'0 0.0
2018-Jul-15 08:28N 38°02' E 023°36'0 0.0
2018-Jul-15 07:58N 38°02' E 023°36'0 0.0
2018-Jul-15 07:30N 38°02' E 023°36'2 3.4
2018-Jul-15 07:00N 38°01' E 023°34'1 1.8
2018-Jul-15 06:29N 38°01' E 023°32'0 0.0
2018-Jul-15 05:59N 38°01' E 023°32'0 0.0
2018-Jul-15 05:29N 38°01' E 023°32'0 0.0
2018-Jul-15 04:59N 38°01' E 023°32'0 0.0
2018-Jul-15 04:29N 38°01' E 023°32'0 0.0
2018-Jul-15 03:58N 38°01' E 023°32'0 0.0
2018-Jul-15 03:28N 38°01' E 023°32'0 0.0
2018-Jul-15 02:59N 38°01' E 023°33'0 0.0
2018-Jul-15 02:29N 38°01' E 023°32'0 0.0
2018-Jul-15 01:59N 38°01' E 023°32'0 0.0
2018-Jul-15 01:28N 38°01' E 023°32'0 0.0
2018-Jul-15 00:58N 38°01' E 023°32'0 0.0
2018-Jul-15 00:29N 38°01' E 023°32'0 0.0
2018-Jul-14 23:59N 38°01' E 023°32'0 0.0
2018-Jul-14 23:29N 38°01' E 023°32'0 0.0
2018-Jul-14 22:59N 38°01' E 023°32'0 0.0
2018-Jul-14 22:28N 38°01' E 023°32'0 0.0
2018-Jul-14 21:59N 38°01' E 023°32'0 0.0
2018-Jul-14 21:29N 38°01' E 023°32'0 0.0
2018-Jul-14 20:59N 38°01' E 023°32'0 0.0
2018-Jul-14 20:28N 38°01' E 023°32'0 0.0
2018-Jul-14 19:58N 38°01' E 023°32'0 0.0
2018-Jul-14 19:29N 38°01' E 023°32'0 0.0
2018-Jul-14 18:58N 38°01' E 023°32'0 0.0
2018-Jul-14 18:29N 38°01' E 023°32'0 0.0
2018-Jul-14 17:58N 38°01' E 023°32'0 0.0
2018-Jul-14 17:29N 38°01' E 023°32'0 0.0
2018-Jul-14 16:59N 38°01' E 023°32'0 0.0
2018-Jul-14 16:29N 38°01' E 023°32'0 0.0
2018-Jul-14 15:55N 38°01' E 023°32'0 0.0
2018-Jul-14 15:29N 38°01' E 023°32'0 0.0
2018-Jul-14 14:58N 38°01' E 023°32'0 0.0
2018-Jul-14 14:29N 38°01' E 023°32'0 0.0
2018-Jul-14 13:29N 38°01' E 023°32'0 0.0
2018-Jul-14 12:58N 38°01' E 023°32'0 0.1
2018-Jul-14 12:29N 38°01' E 023°32'2 3.3
2018-Jul-14 12:00N 37°60' E 023°33'4 8.3
2018-Jul-14 11:30N 37°56' E 023°35'2 4.2
2018-Jul-14 11:00N 37°54' E 023°36'1 2.7
2018-Jul-14 10:30N 37°53' E 023°37'612.3
2018-Jul-14 10:00N 37°47' E 023°41'613.0
2018-Jul-14 09:30N 37°42' E 023°45'612.7
2018-Jul-14 09:00N 37°37' E 023°50'812.6
2018-Jul-14 08:20N 37°31' E 023°58'  

Dump ship's entire track history